createdAt,value
2018-03-26T00:00:09.576Z,1003.15
2018-03-26T00:01:09.760Z,1003.13
2018-03-26T00:02:09.540Z,1003.17
2018-03-26T00:03:09.537Z,1003.15
2018-03-26T00:04:09.544Z,1003.14
2018-03-26T00:05:09.487Z,1003.1
2018-03-26T00:06:09.510Z,1003.16
2018-03-26T00:07:09.451Z,1003.12
2018-03-26T00:08:09.432Z,1003.14
2018-03-26T00:09:09.419Z,1003.17
2018-03-26T00:10:09.426Z,1003.17
2018-03-26T00:11:09.384Z,1003.17
2018-03-26T00:12:09.588Z,1003.18
2018-03-26T00:13:09.350Z,1003.21
2018-03-26T00:14:09.327Z,1003.19
2018-03-26T00:15:09.377Z,1003.21
2018-03-26T00:16:09.297Z,1003.2
2018-03-26T00:17:09.327Z,1003.18
2018-03-26T00:18:09.267Z,1003.2
2018-03-26T00:19:09.246Z,1003.18
2018-03-26T00:20:09.218Z,1003.17
2018-03-26T00:21:09.203Z,1003.2
2018-03-26T00:22:09.184Z,1003.19
2018-03-26T00:23:09.164Z,1003.2
2018-03-26T00:24:09.146Z,1003.2
2018-03-26T00:25:09.131Z,1003.21
2018-03-26T00:26:09.110Z,1003.15
2018-03-26T00:27:09.175Z,1003.14
2018-03-26T00:28:09.080Z,1003.2
2018-03-26T00:29:09.071Z,1003.2
2018-03-26T00:30:09.039Z,1003.17
2018-03-26T00:31:09.025Z,1003.16
2018-03-26T00:32:09.021Z,1003.17
2018-03-26T00:33:08.983Z,1003.15
2018-03-26T00:34:08.965Z,1003.17
2018-03-26T00:35:08.950Z,1003.13
2018-03-26T00:36:08.930Z,1003.19
2018-03-26T00:37:09.007Z,1003.17
2018-03-26T00:38:08.895Z,1003.16
2018-03-26T00:39:08.877Z,1003.15
2018-03-26T00:40:08.857Z,1003.18
2018-03-26T00:41:08.868Z,1003.24
2018-03-26T00:42:08.895Z,1003.23
2018-03-26T00:43:08.861Z,1003.25
2018-03-26T00:44:08.833Z,1003.25
2018-03-26T00:45:08.769Z,1003.25
2018-03-26T00:46:08.750Z,1003.25
2018-03-26T00:47:08.733Z,1003.26
2018-03-26T00:48:08.713Z,1003.24
2018-03-26T00:49:08.748Z,1003.26
2018-03-26T00:50:08.677Z,1003.23
2018-03-26T00:51:08.657Z,1003.25
2018-03-26T00:52:08.642Z,1003.27
2018-03-26T00:53:08.629Z,1003.26
2018-03-26T00:54:08.603Z,1003.28
2018-03-26T00:55:08.587Z,1003.26
2018-03-26T00:56:08.604Z,1003.31
2018-03-26T00:57:08.550Z,1003.31
2018-03-26T00:58:08.533Z,1003.3
2018-03-26T00:59:08.513Z,1003.3
2018-03-26T01:00:08.495Z,1003.33
2018-03-26T01:01:08.478Z,1003.29
2018-03-26T01:02:08.459Z,1003.29
2018-03-26T01:03:08.442Z,1003.36
2018-03-26T01:04:08.423Z,1003.39
2018-03-26T01:05:08.404Z,1003.36
2018-03-26T01:06:08.426Z,1003.39
2018-03-26T01:07:08.415Z,1003.4
2018-03-26T01:08:08.371Z,1003.44
2018-03-26T01:09:08.333Z,1003.38
2018-03-26T01:10:08.317Z,1003.42
2018-03-26T01:11:08.297Z,1003.39
2018-03-26T01:12:08.277Z,1003.42
2018-03-26T01:13:08.284Z,1003.4
2018-03-26T01:14:08.244Z,1003.41
2018-03-26T01:15:08.248Z,1003.39
2018-03-26T01:16:08.202Z,1003.43
2018-03-26T01:17:08.186Z,1003.44
2018-03-26T01:18:08.198Z,1003.41
2018-03-26T01:19:08.150Z,1003.41
2018-03-26T01:20:08.178Z,1003.43
2018-03-26T01:21:08.110Z,1003.39
2018-03-26T01:22:08.091Z,1003.41
2018-03-26T01:23:08.129Z,1003.42
2018-03-26T01:24:08.058Z,1003.44
2018-03-26T01:25:08.038Z,1003.45
2018-03-26T01:26:08.050Z,1003.49
2018-03-26T01:27:07.999Z,1003.51
2018-03-26T01:28:07.983Z,1003.51
2018-03-26T01:29:07.966Z,1003.49
2018-03-26T01:30:07.953Z,1003.53
2018-03-26T01:31:07.928Z,1003.48
2018-03-26T01:32:07.909Z,1003.51
2018-03-26T01:33:07.890Z,1003.54
2018-03-26T01:34:07.872Z,1003.54
2018-03-26T01:35:07.861Z,1003.56
2018-03-26T01:36:07.836Z,1003.55
2018-03-26T01:37:07.831Z,1003.57
2018-03-26T01:38:07.799Z,1003.57
2018-03-26T01:39:07.780Z,1003.6
2018-03-26T01:40:07.765Z,1003.64
2018-03-26T01:41:07.741Z,1003.65
2018-03-26T01:42:07.726Z,1003.7
2018-03-26T01:43:07.736Z,1003.68
2018-03-26T01:44:07.691Z,1003.69
2018-03-26T01:45:07.668Z,1003.67
2018-03-26T01:46:07.650Z,1003.75
2018-03-26T01:47:07.633Z,1003.74
2018-03-26T01:48:07.629Z,1003.79
2018-03-26T01:49:07.598Z,1003.79
2018-03-26T01:50:07.617Z,1003.76
2018-03-26T01:51:07.569Z,1003.85
2018-03-26T01:52:07.541Z,1003.79
2018-03-26T01:53:07.526Z,1003.85
2018-03-26T01:54:07.503Z,1003.85
2018-03-26T01:55:07.485Z,1003.9
2018-03-26T01:56:07.470Z,1003.83
2018-03-26T01:57:07.485Z,1003.89
2018-03-26T01:58:07.428Z,1003.91
2018-03-26T01:59:07.416Z,1003.93
2018-03-26T02:00:07.392Z,1003.93
2018-03-26T02:01:07.374Z,1003.95
2018-03-26T02:02:07.356Z,1003.92
2018-03-26T02:03:07.360Z,1003.93
2018-03-26T02:04:07.318Z,1003.96
2018-03-26T02:05:07.298Z,1003.96
2018-03-26T02:06:07.280Z,1003.94
2018-03-26T02:07:07.264Z,1003.94
2018-03-26T02:08:07.245Z,1004.01
2018-03-26T02:09:07.225Z,1004.02
2018-03-26T02:10:07.205Z,1003.98
2018-03-26T02:11:07.190Z,1003.96
2018-03-26T02:12:07.171Z,1004.01
2018-03-26T02:13:07.149Z,1004.04
2018-03-26T02:14:07.132Z,1004.01
2018-03-26T02:15:07.112Z,1004.06
2018-03-26T02:16:07.094Z,1003.99
2018-03-26T02:17:07.076Z,1004.01
2018-03-26T02:18:07.056Z,1004.05
2018-03-26T02:19:07.037Z,1004.05
2018-03-26T02:20:07.019Z,1004.02
2018-03-26T02:21:07.002Z,1004.03
2018-03-26T02:22:06.982Z,1004.03
2018-03-26T02:23:06.967Z,1004.05
2018-03-26T02:24:06.944Z,1004.06
2018-03-26T02:25:06.925Z,1004.05
2018-03-26T02:26:06.907Z,1004.05
2018-03-26T02:27:06.894Z,1004.07
2018-03-26T02:28:06.869Z,1004.05
2018-03-26T02:29:06.854Z,1004.08
2018-03-26T02:30:06.835Z,1004.05
2018-03-26T02:31:06.813Z,1004.11
2018-03-26T02:32:06.796Z,1004.1
2018-03-26T02:33:06.776Z,1004.17
2018-03-26T02:34:06.757Z,1004.14
2018-03-26T02:35:06.753Z,1004.14
2018-03-26T02:36:06.718Z,1004.13
2018-03-26T02:37:06.704Z,1004.13
2018-03-26T02:38:06.688Z,1004.16
2018-03-26T02:39:06.666Z,1004.15
2018-03-26T02:40:06.645Z,1004.13
2018-03-26T02:41:06.629Z,1004.13
2018-03-26T02:42:06.605Z,1004.13
2018-03-26T02:43:06.587Z,1004.13
2018-03-26T02:44:06.654Z,1004.13
2018-03-26T02:45:06.557Z,1004.17
2018-03-26T02:46:06.535Z,1004.15
2018-03-26T02:47:06.515Z,1004.2
2018-03-26T02:48:06.501Z,1004.19
2018-03-26T02:49:06.476Z,1004.18
2018-03-26T02:50:06.459Z,1004.2
2018-03-26T02:51:06.442Z,1004.22
2018-03-26T02:52:06.428Z,1004.21
2018-03-26T02:53:06.408Z,1004.21
2018-03-26T02:54:06.385Z,1004.22
2018-03-26T02:55:06.370Z,1004.19
2018-03-26T02:56:06.346Z,1004.21
2018-03-26T02:57:06.327Z,1004.18
2018-03-26T02:58:06.335Z,1004.2
2018-03-26T02:59:06.390Z,1004.25
2018-03-26T03:00:06.269Z,1004.25
2018-03-26T03:01:06.256Z,1004.25
2018-03-26T03:02:06.230Z,1004.19
2018-03-26T03:03:06.213Z,1004.23
2018-03-26T03:04:06.194Z,1004.27
2018-03-26T03:05:06.179Z,1004.26
2018-03-26T03:06:06.156Z,1004.31
2018-03-26T03:07:06.139Z,1004.29
2018-03-26T03:08:06.119Z,1004.3
2018-03-26T03:09:06.099Z,1004.33
2018-03-26T03:10:06.080Z,1004.34
2018-03-26T03:11:06.063Z,1004.34
2018-03-26T03:12:06.047Z,1004.34
2018-03-26T03:13:06.022Z,1004.34
2018-03-26T03:14:06.004Z,1004.35
2018-03-26T03:15:05.990Z,1004.37
2018-03-26T03:16:05.971Z,1004.34
2018-03-26T03:17:05.948Z,1004.35
2018-03-26T03:18:05.932Z,1004.33
2018-03-26T03:19:05.912Z,1004.29
2018-03-26T03:20:05.892Z,1004.31
2018-03-26T03:21:05.872Z,1004.29
2018-03-26T03:22:05.853Z,1004.32
2018-03-26T03:23:05.840Z,1004.32
2018-03-26T03:24:05.820Z,1004.32
2018-03-26T03:25:05.797Z,1004.33
2018-03-26T03:26:05.777Z,1004.35
2018-03-26T03:27:05.837Z,1004.34
2018-03-26T03:28:05.739Z,1004.32
2018-03-26T03:29:05.739Z,1004.36
2018-03-26T03:30:05.742Z,1004.36
2018-03-26T03:31:05.685Z,1004.4
2018-03-26T03:32:05.700Z,1004.42
2018-03-26T03:33:05.656Z,1004.43
2018-03-26T03:34:05.627Z,1004.38
2018-03-26T03:35:05.608Z,1004.36
2018-03-26T03:36:05.592Z,1004.42
2018-03-26T03:37:05.568Z,1004.45
2018-03-26T03:38:05.548Z,1004.39
2018-03-26T03:39:05.686Z,1004.42
2018-03-26T03:40:05.519Z,1004.43
2018-03-26T03:41:05.513Z,1004.41
2018-03-26T03:42:05.481Z,1004.4
2018-03-26T03:43:05.492Z,1004.4
2018-03-26T03:44:05.518Z,1004.43
2018-03-26T03:45:05.425Z,1004.49
2018-03-26T03:46:05.398Z,1004.48
2018-03-26T03:47:05.384Z,1004.47
2018-03-26T03:48:05.357Z,1004.47
2018-03-26T03:49:05.343Z,1004.47
2018-03-26T03:50:05.319Z,1004.48
2018-03-26T03:51:05.305Z,1004.5
2018-03-26T03:52:05.283Z,1004.52
2018-03-26T03:53:05.261Z,1004.5
2018-03-26T03:54:05.242Z,1004.51
2018-03-26T03:55:05.227Z,1004.52
2018-03-26T03:56:05.208Z,1004.53
2018-03-26T03:57:05.185Z,1004.52
2018-03-26T03:58:05.166Z,1004.51
2018-03-26T03:59:05.161Z,1004.53
2018-03-26T04:00:05.130Z,1004.53
2018-03-26T04:01:05.113Z,1004.49
2018-03-26T04:02:05.343Z,1004.53
2018-03-26T04:03:05.069Z,1004.49
2018-03-26T04:04:05.053Z,1004.5
2018-03-26T04:05:05.033Z,1004.5
2018-03-26T04:06:05.043Z,1004.52
2018-03-26T04:07:04.995Z,1004.53
2018-03-26T04:08:05.001Z,1004.56
2018-03-26T04:09:04.956Z,1004.56
2018-03-26T04:10:04.938Z,1004.58
2018-03-26T04:11:04.918Z,1004.59
2018-03-26T04:12:04.904Z,1004.56
2018-03-26T04:13:04.879Z,1004.56
2018-03-26T04:14:04.911Z,1004.56
2018-03-26T04:15:04.875Z,1004.53
2018-03-26T04:16:04.822Z,1004.57
2018-03-26T04:17:04.800Z,1004.64
2018-03-26T04:18:04.785Z,1004.61
2018-03-26T04:19:04.763Z,1004.64
2018-03-26T04:20:04.749Z,1004.66
2018-03-26T04:21:04.727Z,1004.69
2018-03-26T04:22:04.705Z,1004.67
2018-03-26T04:23:04.688Z,1004.67
2018-03-26T04:24:04.672Z,1004.68
2018-03-26T04:25:04.648Z,1004.7
2018-03-26T04:26:04.630Z,1004.7
2018-03-26T04:27:04.608Z,1004.68
2018-03-26T04:28:04.589Z,1004.68
2018-03-26T04:29:04.568Z,1004.71
2018-03-26T04:30:04.550Z,1004.7
2018-03-26T04:31:04.546Z,1004.7
2018-03-26T04:32:04.518Z,1004.73
2018-03-26T04:33:04.491Z,1004.74
2018-03-26T04:34:04.479Z,1004.75
2018-03-26T04:35:04.454Z,1004.74
2018-03-26T04:36:04.432Z,1004.77
2018-03-26T04:37:04.413Z,1004.74
2018-03-26T04:38:04.395Z,1004.77
2018-03-26T04:39:04.373Z,1004.77
2018-03-26T04:40:04.390Z,1004.79
2018-03-26T04:41:04.337Z,1004.8
2018-03-26T04:42:04.318Z,1004.77
2018-03-26T04:43:04.301Z,1004.8
2018-03-26T04:44:04.275Z,1004.82
2018-03-26T04:45:04.257Z,1004.8
2018-03-26T04:46:04.237Z,1004.82
2018-03-26T04:47:04.221Z,1004.81
2018-03-26T04:48:04.198Z,1004.8
2018-03-26T04:49:04.239Z,1004.85
2018-03-26T04:50:04.156Z,1004.79
2018-03-26T04:51:04.138Z,1004.8
2018-03-26T04:52:04.118Z,1004.82
2018-03-26T04:53:04.098Z,1004.87
2018-03-26T04:54:04.077Z,1004.86
2018-03-26T04:55:04.165Z,1004.87
2018-03-26T04:56:04.039Z,1004.87
2018-03-26T04:57:04.019Z,1004.88
2018-03-26T04:58:04.054Z,1004.86
2018-03-26T04:59:04.034Z,1004.85
2018-03-26T05:00:03.963Z,1004.89
2018-03-26T05:01:03.943Z,1004.88
2018-03-26T05:02:03.923Z,1004.89
2018-03-26T05:03:03.902Z,1004.86
2018-03-26T05:04:03.975Z,1004.89
2018-03-26T05:05:03.896Z,1004.94
2018-03-26T05:06:03.842Z,1004.91
2018-03-26T05:07:03.845Z,1004.93
2018-03-26T05:08:03.800Z,1004.92
2018-03-26T05:09:03.810Z,1004.94
2018-03-26T05:10:03.766Z,1004.98
2018-03-26T05:11:03.745Z,1004.97
2018-03-26T05:12:03.726Z,1005
2018-03-26T05:13:03.702Z,1004.95
2018-03-26T05:14:03.684Z,1004.95
2018-03-26T05:15:03.664Z,1004.98
2018-03-26T05:16:03.644Z,1005.02
2018-03-26T05:17:03.624Z,1005.02
2018-03-26T05:18:03.630Z,1005.04
2018-03-26T05:19:03.585Z,1005.03
2018-03-26T05:20:03.565Z,1005.05
2018-03-26T05:21:03.546Z,1005
2018-03-26T05:22:03.532Z,1005.03
2018-03-26T05:23:03.505Z,1005.04
2018-03-26T05:24:03.488Z,1005.03
2018-03-26T05:25:03.467Z,1005.05
2018-03-26T05:26:03.453Z,1005.02
2018-03-26T05:27:03.427Z,1005.05
2018-03-26T05:28:03.409Z,1005.08
2018-03-26T05:29:03.388Z,1005.06
2018-03-26T05:30:03.376Z,1005.13
2018-03-26T05:31:03.401Z,1005.1
2018-03-26T05:32:03.355Z,1005.13
2018-03-26T05:33:03.311Z,1005.13
2018-03-26T05:34:03.294Z,1005.14
2018-03-26T05:35:03.272Z,1005.16
2018-03-26T05:36:03.252Z,1005.18
2018-03-26T05:37:03.236Z,1005.25
2018-03-26T05:38:03.216Z,1005.25
2018-03-26T05:39:03.194Z,1005.24
2018-03-26T05:40:03.174Z,1005.28
2018-03-26T05:41:03.152Z,1005.29
2018-03-26T05:42:03.134Z,1005.37
2018-03-26T05:43:03.114Z,1005.34
2018-03-26T05:44:03.094Z,1005.38
2018-03-26T05:45:03.073Z,1005.43
2018-03-26T05:46:03.165Z,1005.39
2018-03-26T05:47:03.037Z,1005.4
2018-03-26T05:48:03.021Z,1005.44
2018-03-26T05:49:02.996Z,1005.44
2018-03-26T05:50:02.979Z,1005.48
2018-03-26T05:51:02.959Z,1005.49
2018-03-26T05:52:02.938Z,1005.48
2018-03-26T05:53:02.918Z,1005.58
2018-03-26T05:54:02.903Z,1005.59
2018-03-26T05:55:02.880Z,1005.62
2018-03-26T05:56:02.862Z,1005.59
2018-03-26T05:57:02.844Z,1005.61
2018-03-26T05:58:02.821Z,1005.59
2018-03-26T05:59:02.803Z,1005.59
2018-03-26T06:00:02.783Z,1005.58
2018-03-26T06:01:02.763Z,1005.64
2018-03-26T06:02:02.952Z,1005.63
2018-03-26T06:03:02.744Z,1005.64
2018-03-26T06:04:02.705Z,1005.57
2018-03-26T06:05:02.685Z,1005.63
2018-03-26T06:06:02.699Z,1005.67
2018-03-26T06:07:02.723Z,1005.64
2018-03-26T06:08:02.629Z,1005.69
2018-03-26T06:09:02.609Z,1005.72
2018-03-26T06:10:02.590Z,1005.74
2018-03-26T06:11:02.569Z,1005.72
2018-03-26T06:12:02.550Z,1005.71
2018-03-26T06:13:02.540Z,1005.72
2018-03-26T06:14:02.515Z,1005.74
2018-03-26T06:15:02.491Z,1005.74
2018-03-26T06:16:02.477Z,1005.76
2018-03-26T06:17:02.471Z,1005.75
2018-03-26T06:18:02.474Z,1005.78
2018-03-26T06:19:02.479Z,1005.78
2018-03-26T06:20:02.394Z,1005.78
2018-03-26T06:21:02.389Z,1005.82
2018-03-26T06:22:02.426Z,1005.86
2018-03-26T06:23:02.335Z,1005.81
2018-03-26T06:24:02.323Z,1005.81
2018-03-26T06:25:02.300Z,1005.82
2018-03-26T06:26:02.280Z,1005.81
2018-03-26T06:27:02.258Z,1005.81
2018-03-26T06:28:02.248Z,1005.84
2018-03-26T06:29:02.221Z,1005.81
2018-03-26T06:30:02.201Z,1005.83
2018-03-26T06:31:02.186Z,1005.82
2018-03-26T06:32:02.162Z,1005.82
2018-03-26T06:33:02.149Z,1005.85
2018-03-26T06:34:02.126Z,1005.82
2018-03-26T06:35:02.110Z,1005.86
2018-03-26T06:36:02.087Z,1005.87
2018-03-26T06:37:02.070Z,1005.87
2018-03-26T06:38:02.097Z,1005.9
2018-03-26T06:39:02.029Z,1005.89
2018-03-26T06:40:02.022Z,1005.89
2018-03-26T06:41:01.994Z,1005.93
2018-03-26T06:42:01.973Z,1005.93
2018-03-26T06:43:01.952Z,1005.96
2018-03-26T06:44:01.936Z,1005.97
2018-03-26T06:45:01.920Z,1006.01
2018-03-26T06:46:01.961Z,1005.97
2018-03-26T06:47:01.875Z,1006.03
2018-03-26T06:48:01.857Z,1006.02
2018-03-26T06:49:01.838Z,1006.02
2018-03-26T06:50:01.820Z,1006.02
2018-03-26T06:51:01.800Z,1006.09
2018-03-26T06:52:01.784Z,1006.13
2018-03-26T06:53:01.765Z,1006.13
2018-03-26T06:54:01.742Z,1006.22
2018-03-26T06:55:01.723Z,1006.2
2018-03-26T06:56:01.708Z,1006.26
2018-03-26T06:57:01.685Z,1006.24
2018-03-26T06:58:01.666Z,1006.25
2018-03-26T06:59:01.649Z,1006.27
2018-03-26T07:00:01.631Z,1006.26
2018-03-26T07:01:01.610Z,1006.28
2018-03-26T07:02:01.590Z,1006.28
2018-03-26T07:03:01.576Z,1006.27
2018-03-26T07:04:01.552Z,1006.29
2018-03-26T07:05:01.534Z,1006.3
2018-03-26T07:06:01.515Z,1006.33
2018-03-26T07:07:01.493Z,1006.31
2018-03-26T07:08:01.476Z,1006.35
2018-03-26T07:09:01.460Z,1006.34
2018-03-26T07:10:01.440Z,1006.39
2018-03-26T07:11:01.419Z,1006.41
2018-03-26T07:12:01.404Z,1006.41
2018-03-26T07:13:01.381Z,1006.42
2018-03-26T07:14:01.365Z,1006.39
2018-03-26T07:15:01.348Z,1006.39
2018-03-26T07:16:01.331Z,1006.39
2018-03-26T07:17:01.309Z,1006.39
2018-03-26T07:18:01.330Z,1006.38
2018-03-26T07:19:01.338Z,1006.36
2018-03-26T07:20:01.253Z,1006.36
2018-03-26T07:21:01.235Z,1006.39
2018-03-26T07:22:01.217Z,1006.38
2018-03-26T07:23:01.214Z,1006.4
2018-03-26T07:24:01.179Z,1006.42
2018-03-26T07:25:01.162Z,1006.45
2018-03-26T07:26:01.162Z,1006.47
2018-03-26T07:27:01.124Z,1006.47
2018-03-26T07:28:01.136Z,1006.47
2018-03-26T07:29:01.088Z,1006.49
2018-03-26T07:30:01.071Z,1006.48
2018-03-26T07:31:01.050Z,1006.49
2018-03-26T07:32:01.033Z,1006.48
2018-03-26T07:33:01.018Z,1006.51
2018-03-26T07:34:00.997Z,1006.51
2018-03-26T07:35:00.979Z,1006.52
2018-03-26T07:36:00.964Z,1006.56
2018-03-26T07:37:00.942Z,1006.52
2018-03-26T07:38:00.924Z,1006.59
2018-03-26T07:39:00.911Z,1006.56
2018-03-26T07:40:00.890Z,1006.57
2018-03-26T07:41:00.873Z,1006.58
2018-03-26T07:42:00.855Z,1006.58
2018-03-26T07:43:00.887Z,1006.59
2018-03-26T07:44:00.821Z,1006.55
2018-03-26T07:45:00.801Z,1006.62
2018-03-26T07:46:00.782Z,1006.6
2018-03-26T07:47:00.779Z,1006.68
2018-03-26T07:48:00.749Z,1006.63
2018-03-26T07:49:00.819Z,1006.61
2018-03-26T07:50:00.713Z,1006.61
2018-03-26T07:51:00.696Z,1006.6
2018-03-26T07:52:00.737Z,1006.61
2018-03-26T07:53:00.720Z,1006.61
2018-03-26T07:54:00.657Z,1006.63
2018-03-26T07:55:00.802Z,1006.58
2018-03-26T07:56:00.612Z,1006.63
2018-03-26T07:57:00.688Z,1006.67
2018-03-26T07:58:00.576Z,1006.66
2018-03-26T07:59:00.560Z,1006.64
2018-03-26T08:00:00.544Z,1006.65
2018-03-26T08:01:00.525Z,1006.64
2018-03-26T08:02:00.717Z,1006.66
2018-03-26T08:03:00.492Z,1006.63
2018-03-26T08:04:00.477Z,1006.66
2018-03-26T08:05:00.460Z,1006.65
2018-03-26T08:06:00.646Z,1006.69
2018-03-26T08:07:00.427Z,1006.68
2018-03-26T08:08:00.411Z,1006.73
2018-03-26T08:09:00.394Z,1006.65
2018-03-26T08:10:00.441Z,1006.7
2018-03-26T08:11:00.360Z,1006.68
2018-03-26T08:12:00.344Z,1006.69
2018-03-26T08:13:00.328Z,1006.74
2018-03-26T08:14:00.314Z,1006.74
2018-03-26T08:15:00.311Z,1006.77
2018-03-26T08:16:00.282Z,1006.79
2018-03-26T08:17:00.381Z,1006.81
2018-03-26T08:18:00.249Z,1007.04
2018-03-26T08:19:00.230Z,1006.84
2018-03-26T08:20:00.217Z,1006.87
2018-03-26T08:21:00.201Z,1006.91
2018-03-26T08:22:00.205Z,1007.13
2018-03-26T08:23:00.167Z,1007.19
2018-03-26T08:24:00.180Z,1007.19
2018-03-26T08:25:00.144Z,1007.12
2018-03-26T08:26:00.159Z,1007.2
2018-03-26T08:27:00.107Z,1007.24
2018-03-26T08:28:00.094Z,1007.28
2018-03-26T08:29:00.079Z,1007.27
2018-03-26T08:30:00.065Z,1007.11
2018-03-26T08:31:00.073Z,1007.04
2018-03-26T08:32:00.041Z,1007.18
2018-03-26T08:33:00.027Z,1007.24
2018-03-26T08:34:00.015Z,1007.28
2018-03-26T08:35:00.003Z,1007.22
2018-03-26T08:36:00.004Z,1007.23
2018-03-26T08:36:59.982Z,1007.28
2018-03-26T08:37:59.968Z,1007.29
2018-03-26T08:38:59.957Z,1007.25
2018-03-26T08:39:59.946Z,1007.21
2018-03-26T08:40:59.941Z,1007.34
2018-03-26T08:41:59.929Z,1007.32
2018-03-26T08:42:59.916Z,1007.25
2018-03-26T08:43:59.914Z,1007.25
2018-03-26T08:44:59.896Z,1007.29
2018-03-26T08:45:59.889Z,1007.26
2018-03-26T08:46:59.881Z,1007.28
2018-03-26T08:47:59.870Z,1007.28
2018-03-26T08:48:59.857Z,1007.22
2018-03-26T08:50:00.106Z,1007.22
2018-03-26T08:50:59.843Z,1007.22
2018-03-26T08:51:59.834Z,1007.24
2018-03-26T08:52:59.825Z,1007.24
2018-03-26T08:53:59.825Z,1007.29
2018-03-26T08:54:59.805Z,1007.37
2018-03-26T08:55:59.797Z,1007.38
2018-03-26T08:56:59.789Z,1007.4
2018-03-26T08:57:59.779Z,1007.41
2018-03-26T08:58:59.777Z,1007.38
2018-03-26T08:59:59.774Z,1007.31
2018-03-26T09:00:59.756Z,1007.35
2018-03-26T09:01:59.749Z,1007.34
2018-03-26T09:02:59.744Z,1007.26
2018-03-26T09:03:59.743Z,1007.25
2018-03-26T09:04:59.734Z,1007.28
2018-03-26T09:05:59.729Z,1007.23
2018-03-26T09:06:59.714Z,1007.2
2018-03-26T09:07:59.708Z,1007.25
2018-03-26T09:08:59.701Z,1007.3
2018-03-26T09:09:59.692Z,1007.3
2018-03-26T09:10:59.687Z,1007.24
2018-03-26T09:11:59.711Z,1007.26
2018-03-26T09:12:59.679Z,1007.23
2018-03-26T09:13:59.666Z,1007.28
2018-03-26T09:14:59.667Z,1007.27
2018-03-26T09:15:59.653Z,1007.23
2018-03-26T09:16:59.648Z,1007.22
2018-03-26T09:17:59.637Z,1007.3
2018-03-26T09:18:59.630Z,1007.3
2018-03-26T09:19:59.625Z,1007.35
2018-03-26T09:20:59.614Z,1007.38
2018-03-26T09:21:59.607Z,1007.4
2018-03-26T09:22:59.602Z,1007.38
2018-03-26T09:23:59.592Z,1007.34
2018-03-26T09:24:59.587Z,1007.27
2018-03-26T09:25:59.586Z,1007.23
2018-03-26T09:26:59.578Z,1007.29
2018-03-26T09:27:59.561Z,1007.34
2018-03-26T09:28:59.561Z,1007.3
2018-03-26T09:29:59.752Z,1007.22
2018-03-26T09:30:59.543Z,1007.28
2018-03-26T09:31:59.532Z,1007.21
2018-03-26T09:32:59.527Z,1007.29
2018-03-26T09:33:59.518Z,1007.31
2018-03-26T09:34:59.511Z,1007.23
2018-03-26T09:35:59.543Z,1007.27
2018-03-26T09:36:59.496Z,1007.29
2018-03-26T09:37:59.486Z,1007.3
2018-03-26T09:38:59.485Z,1007.28
2018-03-26T09:39:59.473Z,1007.26
2018-03-26T09:40:59.467Z,1007.23
2018-03-26T09:41:59.459Z,1007.25
2018-03-26T09:42:59.450Z,1007.24
2018-03-26T09:43:59.443Z,1007.18
2018-03-26T09:44:59.433Z,1007.16
2018-03-26T09:45:59.425Z,1007.18
2018-03-26T09:46:59.417Z,1007.24
2018-03-26T09:47:59.407Z,1007.2
2018-03-26T09:48:59.400Z,1007.24
2018-03-26T09:49:59.390Z,1007.24
2018-03-26T09:50:59.390Z,1007.25
2018-03-26T09:51:59.375Z,1007.24
2018-03-26T09:52:59.366Z,1007.27
2018-03-26T09:53:59.357Z,1007.27
2018-03-26T09:54:59.348Z,1007.31
2018-03-26T09:55:59.346Z,1007.33
2018-03-26T09:56:59.333Z,1007.24
2018-03-26T09:57:59.327Z,1007.27
2018-03-26T09:58:59.320Z,1007.26
2018-03-26T09:59:59.308Z,1007.26
2018-03-26T10:00:59.301Z,1007.25
2018-03-26T10:01:59.498Z,1007.27
2018-03-26T10:02:59.289Z,1007.3
2018-03-26T10:03:59.277Z,1007.25
2018-03-26T10:04:59.269Z,1007.23
2018-03-26T10:05:59.260Z,1007.24
2018-03-26T10:06:59.253Z,1007.24
2018-03-26T10:07:59.271Z,1007.33
2018-03-26T10:08:59.236Z,1007.36
2018-03-26T10:09:59.228Z,1007.32
2018-03-26T10:10:59.221Z,1007.35
2018-03-26T10:11:59.213Z,1007.41
2018-03-26T10:12:59.204Z,1007.34
2018-03-26T10:13:59.202Z,1007.3
2018-03-26T10:14:59.191Z,1007.33
2018-03-26T10:15:59.185Z,1007.33
2018-03-26T10:16:59.177Z,1007.33
2018-03-26T10:17:59.171Z,1007.35
2018-03-26T10:18:59.162Z,1007.3
2018-03-26T10:19:59.171Z,1007.37
2018-03-26T10:20:59.152Z,1007.37
2018-03-26T10:21:59.145Z,1007.34
2018-03-26T10:22:59.137Z,1007.3
2018-03-26T10:23:59.130Z,1007.34
2018-03-26T10:24:59.124Z,1007.34
2018-03-26T10:25:59.118Z,1007.37
2018-03-26T10:26:59.111Z,1007.37
2018-03-26T10:27:59.109Z,1007.36
2018-03-26T10:28:59.116Z,1007.35
2018-03-26T10:29:59.096Z,1007.33
2018-03-26T10:30:59.089Z,1007.34
2018-03-26T10:31:59.083Z,1007.37
2018-03-26T10:32:59.079Z,1007.41
2018-03-26T10:33:59.077Z,1007.46
2018-03-26T10:34:59.067Z,1007.4
2018-03-26T10:35:59.062Z,1007.38
2018-03-26T10:36:59.053Z,1007.38
2018-03-26T10:37:59.049Z,1007.41
2018-03-26T10:38:59.074Z,1007.45
2018-03-26T10:39:59.038Z,1007.44
2018-03-26T10:40:59.050Z,1007.44
2018-03-26T10:41:59.032Z,1007.46
2018-03-26T10:42:59.021Z,1007.49
2018-03-26T10:43:59.018Z,1007.44
2018-03-26T10:44:59.046Z,1007.45
2018-03-26T10:45:59.005Z,1007.44
2018-03-26T10:46:59.002Z,1007.37
2018-03-26T10:47:59.025Z,1007.41
2018-03-26T10:48:59.048Z,1007.45
2018-03-26T10:49:58.986Z,1007.44
2018-03-26T10:50:58.988Z,1007.43
2018-03-26T10:51:58.976Z,1007.4
2018-03-26T10:52:58.973Z,1007.43
2018-03-26T10:53:58.971Z,1007.42
2018-03-26T10:54:58.969Z,1007.42
2018-03-26T10:55:58.958Z,1007.42
2018-03-26T10:56:58.955Z,1007.4
2018-03-26T10:57:58.951Z,1007.27
2018-03-26T10:58:58.987Z,1007.18
2018-03-26T10:59:58.939Z,1007.17
2018-03-26T11:00:58.940Z,1007.39
2018-03-26T11:01:58.935Z,1007.44
2018-03-26T11:02:58.927Z,1007.11
2018-03-26T11:03:58.926Z,1007.12
2018-03-26T11:04:58.922Z,1007.39
2018-03-26T11:05:58.917Z,1007.3
2018-03-26T11:06:58.914Z,1007.05
2018-03-26T11:07:58.911Z,1007.2
2018-03-26T11:08:58.903Z,1007.43
2018-03-26T11:09:58.901Z,1007.28
2018-03-26T11:10:58.898Z,1007.34
2018-03-26T11:11:58.894Z,1007.42
2018-03-26T11:12:58.890Z,1007.46
2018-03-26T11:13:58.891Z,1007.44
2018-03-26T11:14:58.881Z,1007.51
2018-03-26T11:15:58.877Z,1007.54
2018-03-26T11:16:58.875Z,1007.54
2018-03-26T11:17:58.878Z,1007.51
2018-03-26T11:18:58.869Z,1007.51
2018-03-26T11:19:58.866Z,1007.58
2018-03-26T11:20:58.863Z,1007.46
2018-03-26T11:21:58.861Z,1007.53
2018-03-26T11:22:58.873Z,1007.5
2018-03-26T11:23:58.858Z,1007.53
2018-03-26T11:24:58.855Z,1007.52
2018-03-26T11:25:58.853Z,1007.5
2018-03-26T11:26:58.870Z,1007.51
2018-03-26T11:27:58.870Z,1007.48
2018-03-26T11:28:58.849Z,1007.47
2018-03-26T11:29:58.846Z,1007.55
2018-03-26T11:30:58.848Z,1007.52
2018-03-26T11:31:58.845Z,1007.54
2018-03-26T11:32:58.842Z,1007.58
2018-03-26T11:33:58.844Z,1007.56
2018-03-26T11:34:58.841Z,1007.55
2018-03-26T11:35:58.839Z,1007.54
2018-03-26T11:36:58.838Z,1007.49
2018-03-26T11:37:58.840Z,1007.58
2018-03-26T11:38:58.837Z,1007.59
2018-03-26T11:39:58.834Z,1007.54
2018-03-26T11:40:58.833Z,1007.53
2018-03-26T11:41:58.984Z,1007.51
2018-03-26T11:42:58.829Z,1007.52
2018-03-26T11:43:58.830Z,1007.49
2018-03-26T11:44:58.824Z,1007.53
2018-03-26T11:45:58.821Z,1007.54
2018-03-26T11:46:58.860Z,1007.57
2018-03-26T11:47:58.819Z,1007.55
2018-03-26T11:48:58.813Z,1007.6
2018-03-26T11:49:58.806Z,1007.55
2018-03-26T11:50:58.803Z,1007.59
2018-03-26T11:51:58.797Z,1007.6
2018-03-26T11:52:58.795Z,1007.63
2018-03-26T11:53:58.789Z,1007.63
2018-03-26T11:54:58.786Z,1007.62
2018-03-26T11:55:58.780Z,1007.6
2018-03-26T11:56:58.774Z,1007.61
2018-03-26T11:57:58.773Z,1007.59
2018-03-26T11:58:58.767Z,1007.62
2018-03-26T11:59:58.763Z,1007.63
2018-03-26T12:00:58.756Z,1007.65
2018-03-26T12:01:58.953Z,1007.62
2018-03-26T12:02:58.746Z,1007.58
2018-03-26T12:03:58.742Z,1007.55
2018-03-26T12:04:58.739Z,1007.61
2018-03-26T12:05:58.737Z,1007.54
2018-03-26T12:06:58.731Z,1007.57
2018-03-26T12:07:58.729Z,1007.58